sensor_id;sensor_type;location;lat;lon;timestamp;temperature;humidity
42979;DHT22;28616;44.746;19.678;2023-12-04T00:14:07;-1.70;99.90
42979;DHT22;28616;44.746;19.678;2023-12-04T00:16:34;-1.70;99.90
42979;DHT22;28616;44.746;19.678;2023-12-04T00:36:04;-1.70;99.90
42979;DHT22;28616;44.746;19.678;2023-12-04T00:45:48;-1.70;99.90
42979;DHT22;28616;44.746;19.678;2023-12-04T00:48:14;-1.70;99.90
42979;DHT22;28616;44.746;19.678;2023-12-04T00:50:40;-1.70;99.90
42979;DHT22;28616;44.746;19.678;2023-12-04T00:53:05;-1.70;99.90
42979;DHT22;28616;44.746;19.678;2023-12-04T00:55:31;-1.80;99.90
42979;DHT22;28616;44.746;19.678;2023-12-04T00:57:57;-1.80;99.90
42979;DHT22;28616;44.746;19.678;2023-12-04T01:00:23;-1.70;99.90
42979;DHT22;28616;44.746;19.678;2023-12-04T01:02:48;-1.90;99.90
42979;DHT22;28616;44.746;19.678;2023-12-04T01:05:14;-1.70;99.90
42979;DHT22;28616;44.746;19.678;2023-12-04T01:07:40;-1.80;99.90
42979;DHT22;28616;44.746;19.678;2023-12-04T01:10:06;-1.80;99.90
42979;DHT22;28616;44.746;19.678;2023-12-04T01:12:32;-1.80;99.90
42979;DHT22;28616;44.746;19.678;2023-12-04T01:14:58;-1.80;99.90
42979;DHT22;28616;44.746;19.678;2023-12-04T01:17:23;-1.80;99.90
42979;DHT22;28616;44.746;19.678;2023-12-04T01:19:49;-1.80;99.90
42979;DHT22;28616;44.746;19.678;2023-12-04T01:22:15;-1.80;99.90
42979;DHT22;28616;44.746;19.678;2023-12-04T01:24:41;-1.80;99.90
42979;DHT22;28616;44.746;19.678;2023-12-04T01:27:06;-1.90;99.90
42979;DHT22;28616;44.746;19.678;2023-12-04T01:29:32;-1.80;99.90
42979;DHT22;28616;44.746;19.678;2023-12-04T01:31:58;-1.80;99.90
42979;DHT22;28616;44.746;19.678;2023-12-04T01:34:24;-1.80;99.90
42979;DHT22;28616;44.746;19.678;2023-12-04T01:36:49;-1.80;99.90
42979;DHT22;28616;44.746;19.678;2023-12-04T01:39:15;-1.80;99.90
42979;DHT22;28616;44.746;19.678;2023-12-04T01:41:41;-1.80;99.90
42979;DHT22;28616;44.746;19.678;2023-12-04T01:44:07;-1.90;99.90
42979;DHT22;28616;44.746;19.678;2023-12-04T01:46:33;-1.80;99.90
42979;DHT22;28616;44.746;19.678;2023-12-04T01:48:59;-1.80;99.90
42979;DHT22;28616;44.746;19.678;2023-12-04T01:51:26;-1.90;99.90
42979;DHT22;28616;44.746;19.678;2023-12-04T01:53:53;-2.00;99.90
42979;DHT22;28616;44.746;19.678;2023-12-04T01:56:19;-2.00;99.90
42979;DHT22;28616;44.746;19.678;2023-12-04T01:58:46;-2.00;99.90
42979;DHT22;28616;44.746;19.678;2023-12-04T02:01:12;-2.10;99.90
42979;DHT22;28616;44.746;19.678;2023-12-04T02:03:37;-2.10;99.90
42979;DHT22;28616;44.746;19.678;2023-12-04T02:06:04;-2.10;99.90
42979;DHT22;28616;44.746;19.678;2023-12-04T02:08:31;-2.10;99.90
42979;DHT22;28616;44.746;19.678;2023-12-04T02:10:58;-2.20;99.90
42979;DHT22;28616;44.746;19.678;2023-12-04T02:13:24;-2.20;99.90
42979;DHT22;28616;44.746;19.678;2023-12-04T02:15:53;-2.20;99.90
42979;DHT22;28616;44.746;19.678;2023-12-04T02:18:20;-2.20;99.90
42979;DHT22;28616;44.746;19.678;2023-12-04T02:20:47;-2.20;99.90
42979;DHT22;28616;44.746;19.678;2023-12-04T02:23:13;-2.20;99.90
42979;DHT22;28616;44.746;19.678;2023-12-04T02:25:39;-2.30;99.90
42979;DHT22;28616;44.746;19.678;2023-12-04T02:28:11;-2.30;99.90
42979;DHT22;28616;44.746;19.678;2023-12-04T02:30:42;-2.30;99.90
42979;DHT22;28616;44.746;19.678;2023-12-04T02:33:11;-2.30;99.90
42979;DHT22;28616;44.746;19.678;2023-12-04T02:35:39;-2.30;99.90
42979;DHT22;28616;44.746;19.678;2023-12-04T02:38:07;-2.40;99.90
42979;DHT22;28616;44.746;19.678;2023-12-04T02:40:33;-2.30;99.90
42979;DHT22;28616;44.746;19.678;2023-12-04T02:43:00;-2.30;99.90
42979;DHT22;28616;44.746;19.678;2023-12-04T02:45:25;-2.30;99.90
42979;DHT22;28616;44.746;19.678;2023-12-04T02:47:51;-2.30;99.90
42979;DHT22;28616;44.746;19.678;2023-12-04T03:04:55;-2.50;99.90
42979;DHT22;28616;44.746;19.678;2023-12-04T03:19:33;-2.60;99.90
42979;DHT22;28616;44.746;19.678;2023-12-04T03:22:00;-2.60;99.90
42979;DHT22;28616;44.746;19.678;2023-12-04T10:06:51;6.60;78.60
42979;DHT22;28616;44.746;19.678;2023-12-04T10:18:28;8.50;65.90
42979;DHT22;28616;44.746;19.678;2023-12-04T10:20:55;9.10;65.60
42979;DHT22;28616;44.746;19.678;2023-12-04T10:23:22;9.30;65.00
42979;DHT22;28616;44.746;19.678;2023-12-04T10:25:50;9.40;63.20
42979;DHT22;28616;44.746;19.678;2023-12-04T10:28:17;9.70;62.60
42979;DHT22;28616;44.746;19.678;2023-12-04T10:30:43;9.90;62.20
42979;DHT22;28616;44.746;19.678;2023-12-04T10:33:09;10.10;61.90
42979;DHT22;28616;44.746;19.678;2023-12-04T10:35:36;9.90;60.00
42979;DHT22;28616;44.746;19.678;2023-12-04T10:38:03;10.20;59.20
42979;DHT22;28616;44.746;19.678;2023-12-04T10:40:30;10.20;71.10
42979;DHT22;28616;44.746;19.678;2023-12-04T10:43:14;10.30;58.20
42979;DHT22;28616;44.746;19.678;2023-12-04T10:45:41;10.50;58.90
42979;DHT22;28616;44.746;19.678;2023-12-04T10:48:08;9.90;57.50
42979;DHT22;28616;44.746;19.678;2023-12-04T10:50:36;10.00;58.60
42979;DHT22;28616;44.746;19.678;2023-12-04T10:53:06;9.30;57.40
42979;DHT22;28616;44.746;19.678;2023-12-04T10:55:33;9.10;58.50
42979;DHT22;28616;44.746;19.678;2023-12-04T10:58:11;8.90;59.30
42979;DHT22;28616;44.746;19.678;2023-12-04T11:00:57;9.30;59.90
42979;DHT22;28616;44.746;19.678;2023-12-04T11:03:31;9.60;58.90
42979;DHT22;28616;44.746;19.678;2023-12-04T11:06:02;9.20;57.50
42979;DHT22;28616;44.746;19.678;2023-12-04T11:08:33;9.40;56.40
42979;DHT22;28616;44.746;19.678;2023-12-04T11:11:03;9.30;55.40
42979;DHT22;28616;44.746;19.678;2023-12-04T11:13:34;9.10;55.70
42979;DHT22;28616;44.746;19.678;2023-12-04T11:16:05;9.10;54.70
42979;DHT22;28616;44.746;19.678;2023-12-04T11:18:36;9.20;54.40
42979;DHT22;28616;44.746;19.678;2023-12-04T11:21:09;9.50;54.70
42979;DHT22;28616;44.746;19.678;2023-12-04T11:23:35;9.30;54.40
42979;DHT22;28616;44.746;19.678;2023-12-04T11:26:03;8.90;53.80
42979;DHT22;28616;44.746;19.678;2023-12-04T11:28:30;8.60;53.10
42979;DHT22;28616;44.746;19.678;2023-12-04T11:30:57;7.60;52.50
42979;DHT22;28616;44.746;19.678;2023-12-04T11:33:23;7.40;54.40
42979;DHT22;28616;44.746;19.678;2023-12-04T11:35:50;7.40;54.90
42979;DHT22;28616;44.746;19.678;2023-12-04T11:38:19;6.90;55.00
42979;DHT22;28616;44.746;19.678;2023-12-04T11:40:46;6.90;68.80
42979;DHT22;28616;44.746;19.678;2023-12-04T11:45:48;6.40;54.20
42979;DHT22;28616;44.746;19.678;2023-12-04T11:48:15;6.40;56.00
42979;DHT22;28616;44.746;19.678;2023-12-04T11:50:43;6.40;57.10
42979;DHT22;28616;44.746;19.678;2023-12-04T11:53:11;6.10;54.80
42979;DHT22;28616;44.746;19.678;2023-12-04T11:55:40;5.90;56.80
42979;DHT22;28616;44.746;19.678;2023-12-04T11:58:11;5.50;57.30
42979;DHT22;28616;44.746;19.678;2023-12-04T12:00:37;5.30;57.60
42979;DHT22;28616;44.746;19.678;2023-12-04T12:03:07;5.10;58.30
42979;DHT22;28616;44.746;19.678;2023-12-04T12:05:36;5.00;58.50
42979;DHT22;28616;44.746;19.678;2023-12-04T12:08:05;4.80;59.00
42979;DHT22;28616;44.746;19.678;2023-12-04T12:10:32;4.80;59.60
42979;DHT22;28616;44.746;19.678;2023-12-04T12:12:58;4.70;62.80
42979;DHT22;28616;44.746;19.678;2023-12-04T12:15:24;4.60;61.40
42979;DHT22;28616;44.746;19.678;2023-12-04T12:17:50;4.30;82.80
42979;DHT22;28616;44.746;19.678;2023-12-04T12:20:21;4.50;84.70
42979;DHT22;28616;44.746;19.678;2023-12-04T12:22:48;4.70;84.00
42979;DHT22;28616;44.746;19.678;2023-12-04T12:25:15;4.80;80.70
42979;DHT22;28616;44.746;19.678;2023-12-04T12:27:41;4.50;61.50
42979;DHT22;28616;44.746;19.678;2023-12-04T12:30:08;4.40;62.20
42979;DHT22;28616;44.746;19.678;2023-12-04T12:32:34;3.00;83.70
42979;DHT22;28616;44.746;19.678;2023-12-04T12:35:01;4.10;90.20
42979;DHT22;28616;44.746;19.678;2023-12-04T12:37:27;4.30;64.90
42979;DHT22;28616;44.746;19.678;2023-12-04T12:39:53;4.30;91.30
42979;DHT22;28616;44.746;19.678;2023-12-04T12:42:26;4.40;90.00
42979;DHT22;28616;44.746;19.678;2023-12-04T12:49:47;4.20;84.40
42979;DHT22;28616;44.746;19.678;2023-12-04T12:52:13;4.40;71.70
42979;DHT22;28616;44.746;19.678;2023-12-04T12:54:43;4.20;69.00
42979;DHT22;28616;44.746;19.678;2023-12-04T12:57:10;4.40;70.80
42979;DHT22;28616;44.746;19.678;2023-12-04T12:59:41;4.10;64.50
42979;DHT22;28616;44.746;19.678;2023-12-04T13:02:07;3.70;75.80
42979;DHT22;28616;44.746;19.678;2023-12-04T13:04:41;4.00;66.10
42979;DHT22;28616;44.746;19.678;2023-12-04T13:07:07;3.70;76.50
42979;DHT22;28616;44.746;19.678;2023-12-04T13:09:33;4.00;65.60
42979;DHT22;28616;44.746;19.678;2023-12-04T13:12:02;3.90;65.70
42979;DHT22;28616;44.746;19.678;2023-12-04T13:14:28;3.90;66.40
42979;DHT22;28616;44.746;19.678;2023-12-04T13:21:50;3.80;91.60
42979;DHT22;28616;44.746;19.678;2023-12-04T13:26:43;3.70;64.20
42979;DHT22;28616;44.746;19.678;2023-12-04T13:36:33;3.60;63.00
42979;DHT22;28616;44.746;19.678;2023-12-04T13:59:23;3.40;66.60
42979;DHT22;28616;44.746;19.678;2023-12-04T14:01:50;3.40;67.70
42979;DHT22;28616;44.746;19.678;2023-12-04T14:11:42;3.60;89.10
42979;DHT22;28616;44.746;19.678;2023-12-04T14:19:01;3.40;75.80
42979;DHT22;28616;44.746;19.678;2023-12-04T14:21:28;3.40;72.40
42979;DHT22;28616;44.746;19.678;2023-12-04T14:23:54;3.80;78.60
42979;DHT22;28616;44.746;19.678;2023-12-04T14:26:19;3.30;77.40
42979;DHT22;28616;44.746;19.678;2023-12-04T14:28:45;3.10;75.30
42979;DHT22;28616;44.746;19.678;2023-12-04T14:31:12;3.20;72.60
42979;DHT22;28616;44.746;19.678;2023-12-04T14:33:38;3.20;73.60
42979;DHT22;28616;44.746;19.678;2023-12-04T14:36:04;3.20;90.20
42979;DHT22;28616;44.746;19.678;2023-12-04T14:48:14;3.10;94.10
42979;DHT22;28616;44.746;19.678;2023-12-04T14:50:40;2.80;99.50
